createdAt,value
2023-12-08T00:00:55.459Z,2.15
2023-12-08T00:05:57.931Z,2.13
2023-12-08T00:11:00.885Z,2.22
2023-12-08T00:16:04.495Z,1.42
2023-12-08T00:21:07.754Z,2.08
2023-12-08T00:26:12.182Z,1.33
2023-12-08T00:31:15.069Z,1.85
2023-12-08T00:36:18.826Z,1.30
2023-12-08T00:41:21.668Z,1.33
2023-12-08T00:46:24.383Z,2.08
2023-12-08T00:51:27.251Z,1.60
2023-12-08T00:56:30.214Z,1.80
2023-12-08T01:01:33.210Z,1.65
2023-12-08T01:06:35.600Z,2.00
2023-12-08T01:11:38.648Z,1.80
2023-12-08T01:16:42.761Z,2.58
2023-12-08T01:21:45.601Z,1.58
2023-12-08T01:26:48.587Z,3.33
2023-12-08T01:31:51.062Z,2.13
2023-12-08T01:36:54.188Z,2.20
2023-12-08T01:41:57.032Z,1.90
2023-12-08T01:46:59.905Z,1.95
2023-12-08T01:52:04.580Z,2.30
2023-12-08T01:57:07.472Z,2.75
2023-12-08T02:02:11.082Z,2.65
2023-12-08T02:07:14.860Z,2.78
2023-12-08T02:12:18.029Z,2.65
2023-12-08T02:17:24.990Z,2.78
2023-12-08T02:22:28.043Z,3.88
2023-12-08T02:27:31.810Z,5.40
2023-12-08T02:32:54.279Z,3.60
2023-12-08T02:38:00.949Z,3.38
2023-12-08T02:43:04.758Z,3.80
2023-12-08T02:48:07.401Z,3.55
2023-12-08T02:53:10.251Z,3.90
2023-12-08T02:58:13.193Z,3.92
2023-12-08T03:03:16.249Z,3.95
2023-12-08T03:08:19.104Z,3.75
2023-12-08T03:13:22.128Z,4.22
2023-12-08T03:18:24.951Z,4.65
2023-12-08T03:23:27.871Z,4.90
2023-12-08T03:28:30.222Z,7.80
2023-12-08T03:33:33.112Z,5.10
2023-12-08T03:38:36.050Z,4.82
2023-12-08T03:43:39.563Z,6.25
2023-12-08T03:48:42.138Z,9.75
2023-12-08T03:53:45.061Z,7.05
2023-12-08T03:58:47.358Z,6.22
2023-12-08T04:03:50.395Z,6.22
2023-12-08T04:08:53.263Z,6.05
2023-12-08T04:13:56.218Z,7.07
2023-12-08T04:18:59.099Z,6.40
2023-12-08T04:24:01.926Z,5.72
2023-12-08T04:29:04.742Z,6.55
2023-12-08T04:34:07.632Z,8.48
2023-12-08T04:39:10.631Z,7.38
2023-12-08T04:44:13.762Z,7.25
2023-12-08T04:49:16.204Z,8.57
2023-12-08T04:54:19.025Z,7.78
2023-12-08T04:59:21.867Z,8.70
2023-12-08T05:04:24.809Z,11.40
2023-12-08T05:09:28.590Z,8.77
2023-12-08T05:14:31.755Z,7.43
2023-12-08T05:19:34.696Z,10.65
2023-12-08T05:24:37.495Z,10.82
2023-12-08T05:29:40.417Z,10.93
2023-12-08T05:34:43.209Z,10.50
2023-12-08T05:39:45.898Z,9.38
2023-12-08T05:44:48.328Z,9.40
2023-12-08T05:49:51.237Z,11.05
2023-12-08T05:54:53.544Z,11.43
2023-12-08T06:00:12.646Z,10.57
2023-12-08T06:05:16.787Z,10.80
2023-12-08T06:10:19.511Z,12.35
2023-12-08T06:15:22.199Z,15.63
2023-12-08T06:20:25.047Z,12.40
2023-12-08T06:25:27.345Z,15.70
2023-12-08T06:30:29.669Z,12.68
2023-12-08T06:35:31.853Z,10.85
2023-12-08T06:40:34.777Z,11.23
2023-12-08T06:45:37.771Z,10.88
2023-12-08T06:50:40.651Z,11.32
2023-12-08T06:55:43.647Z,14.40
2023-12-08T07:00:46.501Z,46.53
2023-12-08T07:05:49.707Z,34.20
2023-12-08T07:10:52.565Z,14.85
2023-12-08T07:15:55.587Z,23.95
2023-12-08T07:20:58.496Z,17.63
2023-12-08T07:26:02.196Z,11.88
2023-12-08T07:31:05.508Z,10.93
2023-12-08T07:36:08.654Z,8.63
2023-12-08T07:41:11.481Z,10.93
2023-12-08T07:46:14.398Z,8.13
2023-12-08T07:51:17.295Z,26.15
2023-12-08T07:56:20.194Z,13.48
2023-12-08T08:01:23.298Z,10.38
2023-12-08T08:06:26.800Z,13.68
2023-12-08T08:11:29.679Z,17.20
2023-12-08T08:16:32.620Z,13.25
2023-12-08T08:21:35.083Z,13.38
2023-12-08T08:26:37.485Z,19.58
2023-12-08T08:31:41.034Z,12.93
2023-12-08T08:36:43.922Z,14.50
2023-12-08T08:41:47.139Z,13.68
2023-12-08T08:46:49.916Z,14.20
2023-12-08T08:51:52.749Z,21.35
2023-12-08T08:56:55.541Z,16.98
2023-12-08T09:01:58.282Z,9.63
2023-12-08T09:07:01.523Z,13.40
2023-12-08T09:12:04.944Z,12.52
2023-12-08T09:17:07.565Z,11.20
2023-12-08T09:22:10.299Z,8.98
2023-12-08T09:27:13.230Z,16.70
2023-12-08T09:32:16.380Z,25.23
2023-12-08T09:37:27.181Z,11.55
2023-12-08T09:42:44.469Z,20.13
2023-12-08T09:47:52.299Z,19.20
2023-12-08T09:52:58.379Z,11.20
2023-12-08T09:58:03.248Z,12.30
2023-12-08T10:03:06.285Z,15.65
2023-12-08T10:08:11.497Z,13.93
2023-12-08T10:13:14.852Z,14.23
2023-12-08T10:18:28.044Z,20.75
2023-12-08T10:23:31.046Z,18.05
2023-12-08T10:28:36.897Z,23.10
2023-12-08T10:33:42.917Z,43.88
2023-12-08T10:38:46.723Z,20.67
2023-12-08T10:43:49.122Z,34.90
2023-12-08T10:48:52.566Z,13.73
2023-12-08T10:53:56.962Z,23.73
2023-12-08T10:59:04.657Z,11.40
2023-12-08T11:04:11.836Z,63.72
2023-12-08T11:09:18.003Z,10.60
2023-12-08T11:14:39.497Z,33.13
2023-12-08T11:19:42.910Z,12.00
2023-12-08T11:24:46.194Z,12.07
2023-12-08T11:30:06.252Z,12.45
2023-12-08T11:35:14.084Z,13.68
2023-12-08T11:40:17.112Z,12.60
2023-12-08T11:45:20.298Z,34.90
2023-12-08T11:50:23.235Z,20.70
2023-12-08T11:55:33.062Z,11.93
2023-12-08T12:00:40.548Z,10.45
2023-12-08T12:05:43.589Z,9.85
2023-12-08T12:10:47.855Z,9.82
2023-12-08T12:15:50.667Z,12.23
2023-12-08T12:20:53.452Z,12.95
2023-12-08T12:25:56.426Z,8.60
2023-12-08T12:31:01.790Z,9.73
2023-12-08T12:36:06.681Z,13.55
2023-12-08T12:41:22.959Z,10.02
2023-12-08T12:46:29.177Z,12.43
2023-12-08T12:51:36.594Z,13.90
2023-12-08T12:56:52.990Z,10.93
2023-12-08T13:01:55.953Z,19.90
2023-12-08T13:06:58.646Z,15.27
2023-12-08T13:12:01.459Z,15.98
2023-12-08T13:17:07.103Z,19.25
2023-12-08T13:22:09.688Z,9.35
2023-12-08T13:27:12.408Z,16.25
2023-12-08T13:32:14.672Z,71.50
2023-12-08T13:37:18.326Z,75.95
2023-12-08T13:42:21.121Z,72.20
2023-12-08T13:47:23.850Z,29.90
2023-12-08T13:52:26.701Z,51.33
2023-12-08T13:57:29.292Z,28.13
2023-12-08T14:02:32.780Z,8.98
2023-12-08T14:07:35.581Z,26.92
2023-12-08T14:12:38.470Z,8.70
2023-12-08T14:17:41.470Z,7.82
2023-12-08T14:22:44.261Z,17.13
2023-12-08T14:27:47.014Z,18.60
2023-12-08T14:32:49.955Z,10.70
2023-12-08T14:37:53.137Z,24.63
2023-12-08T14:42:56.135Z,14.00
2023-12-08T14:47:59.164Z,9.75
2023-12-08T14:53:02.276Z,16.98
2023-12-08T14:58:05.336Z,22.17
2023-12-08T15:03:08.360Z,17.67
2023-12-08T15:08:11.232Z,10.05
2023-12-08T15:13:13.948Z,11.43
2023-12-08T15:18:16.985Z,7.97
2023-12-08T15:23:22.045Z,16.58
2023-12-08T15:28:28.999Z,12.85
2023-12-08T15:33:33.178Z,39.17
2023-12-08T15:38:37.309Z,13.82
2023-12-08T15:43:40.493Z,12.52
2023-12-08T15:48:43.563Z,16.45
2023-12-08T15:53:46.343Z,21.73
2023-12-08T15:58:49.211Z,40.95
2023-12-08T16:03:52.132Z,38.35
2023-12-08T16:08:55.588Z,20.30
2023-12-08T16:14:00.435Z,59.55
2023-12-08T16:19:03.409Z,65.28
2023-12-08T16:24:07.984Z,41.47
2023-12-08T16:29:10.804Z,25.73
2023-12-08T16:34:14.695Z,38.10
2023-12-08T16:39:19.439Z,13.60
2023-12-08T16:44:23.310Z,20.10
2023-12-08T16:49:26.577Z,18.33
2023-12-08T16:54:29.647Z,14.18
2023-12-08T16:59:34.234Z,8.88
2023-12-08T17:04:36.694Z,10.27
2023-12-08T17:09:38.965Z,9.20
2023-12-08T17:14:41.657Z,10.02
2023-12-08T17:19:44.435Z,9.48
2023-12-08T17:24:47.160Z,12.40
2023-12-08T17:29:50.019Z,18.67
2023-12-08T17:34:53.045Z,27.25
2023-12-08T17:39:57.680Z,24.58
2023-12-08T17:45:00.188Z,32.60
2023-12-08T17:50:03.317Z,13.35
2023-12-08T17:55:06.453Z,22.42
2023-12-08T18:00:09.477Z,19.88
2023-12-08T18:05:16.384Z,24.05
2023-12-08T18:10:18.896Z,22.63
2023-12-08T18:15:22.297Z,26.67
2023-12-08T18:20:24.778Z,21.60
2023-12-08T18:25:27.915Z,23.15
2023-12-08T18:30:30.867Z,19.67
2023-12-08T18:35:33.350Z,31.33
2023-12-08T18:40:36.802Z,121.30
2023-12-08T18:45:39.097Z,68.80
2023-12-08T18:50:42.123Z,29.60
2023-12-08T18:55:44.732Z,30.08
2023-12-08T19:00:47.744Z,18.05
2023-12-08T19:05:50.611Z,32.58
2023-12-08T19:10:53.468Z,24.30
2023-12-08T19:15:56.877Z,25.98
2023-12-08T19:20:59.305Z,23.08
2023-12-08T19:26:03.384Z,22.90
2023-12-08T19:31:05.780Z,13.88
2023-12-08T19:36:09.507Z,29.85
2023-12-08T19:41:12.552Z,21.83
2023-12-08T19:46:15.353Z,20.10
2023-12-08T19:51:18.391Z,25.33
2023-12-08T19:56:20.736Z,28.00
2023-12-08T20:01:23.534Z,26.48
2023-12-08T20:06:26.447Z,14.80
2023-12-08T20:11:29.318Z,12.60
2023-12-08T20:16:36.096Z,15.07
2023-12-08T20:21:41.512Z,12.80
2023-12-08T20:26:44.845Z,17.55
2023-12-08T20:31:47.915Z,11.00
2023-12-08T20:36:50.680Z,11.77
2023-12-08T20:41:54.864Z,11.55
2023-12-08T20:46:57.766Z,11.38
2023-12-08T20:52:01.939Z,12.93
2023-12-08T20:57:04.502Z,12.48
2023-12-08T21:02:08.384Z,12.80
2023-12-08T21:07:11.150Z,12.60
2023-12-08T21:12:14.072Z,14.23
2023-12-08T21:17:16.949Z,13.10
2023-12-08T21:22:19.281Z,11.90
2023-12-08T21:27:22.317Z,11.85
2023-12-08T21:32:25.099Z,12.15
2023-12-08T21:37:29.498Z,11.18
2023-12-08T21:42:32.746Z,10.82
2023-12-08T21:47:35.496Z,11.55
2023-12-08T21:52:38.174Z,11.50
2023-12-08T21:57:41.056Z,12.50
2023-12-08T22:02:43.531Z,10.77
2023-12-08T22:07:46.306Z,11.52
2023-12-08T22:12:49.031Z,9.50
2023-12-08T22:17:51.459Z,11.45
2023-12-08T22:22:54.270Z,10.90
2023-12-08T22:27:57.203Z,9.60
2023-12-08T22:32:59.661Z,11.85
2023-12-08T22:38:02.393Z,12.40
2023-12-08T22:43:04.607Z,12.35
2023-12-08T22:48:07.567Z,13.77
2023-12-08T22:53:10.457Z,14.27
2023-12-08T22:58:13.243Z,15.00
2023-12-08T23:03:15.949Z,14.93
2023-12-08T23:08:18.890Z,13.10
2023-12-08T23:13:21.630Z,14.38
2023-12-08T23:18:23.990Z,14.35
2023-12-08T23:23:26.803Z,14.18
2023-12-08T23:28:29.594Z,13.48
2023-12-08T23:33:32.599Z,16.00
2023-12-08T23:38:36.292Z,14.77
2023-12-08T23:43:39.056Z,13.60
2023-12-08T23:48:42.174Z,12.75
2023-12-08T23:53:45.236Z,10.50
2023-12-08T23:58:48.197Z,9.65
